Terminal Aerodrome Forecast
Issued by NWS Pocatello, ID

Home | Current Version | Previous Version | Text Only | Print | Product List | Glossary On
Versions: 1 2 3 4 5 6 7 8 9 10 11 12 13 14 15
000
FTUS45 KPIH 021100
TAFBYI
TAF
KBYI 021120Z 0212/0312 VRB06KT P6SM BKN200
     FM022000 29009KT P6SM FEW050 SCT150
     FM030600 24012G22KT P6SM BKN090=

USA.gov is the U.S. government's official web portal to all federal, state and local government web resources and services.